createdAt,value
2019-04-02T00:01:27.759Z,55.43
2019-04-02T00:03:54.504Z,56.14
2019-04-02T00:06:21.315Z,56.06
2019-04-02T00:08:47.849Z,54.97
2019-04-02T00:11:14.642Z,54.95
2019-04-02T00:13:41.889Z,54.76
2019-04-02T00:16:08.746Z,56.12
2019-04-02T00:18:37.103Z,56.36
2019-04-02T00:21:03.999Z,56.24
2019-04-02T00:23:30.659Z,55.83
2019-04-02T00:25:57.434Z,56.75
2019-04-02T00:28:24.088Z,55.88
2019-04-02T00:30:50.920Z,57.06
2019-04-02T00:33:17.505Z,56.33
2019-04-02T00:35:44.293Z,56.40
2019-04-02T00:38:10.952Z,56.78
2019-04-02T00:40:39.807Z,57.35
2019-04-02T00:43:06.097Z,56.93
2019-04-02T00:45:33.809Z,57.36
2019-04-02T00:48:00.467Z,56.81
2019-04-02T00:50:27.259Z,56.93
2019-04-02T00:52:53.968Z,56.67
2019-04-02T00:55:20.610Z,56.54
2019-04-02T00:57:47.410Z,57.34
2019-04-02T01:00:14.609Z,56.60
2019-04-02T01:02:43.952Z,56.90
2019-04-02T01:05:10.835Z,57.66
2019-04-02T01:07:37.559Z,57.49
2019-04-02T01:10:05.030Z,58.02
2019-04-02T01:12:31.689Z,58.17
2019-04-02T01:14:58.471Z,57.86
2019-04-02T01:17:25.044Z,57.34
2019-04-02T01:19:51.663Z,58.14
2019-04-02T01:22:18.302Z,57.26
2019-04-02T01:24:44.886Z,56.97
2019-04-02T01:27:12.019Z,57.31
2019-04-02T01:29:38.861Z,56.46
2019-04-02T01:32:05.593Z,56.22
2019-04-02T01:34:32.238Z,56.79
2019-04-02T01:36:59.098Z,56.85
2019-04-02T01:39:25.790Z,56.83
2019-04-02T01:41:52.378Z,57.10
2019-04-02T01:44:19.092Z,56.30
2019-04-02T01:46:46.227Z,57.00
2019-04-02T01:49:13.074Z,56.61
2019-04-02T01:51:41.050Z,57.61
2019-04-02T01:54:07.937Z,56.38
2019-04-02T01:56:34.743Z,56.76
2019-04-02T01:59:01.684Z,57.53
2019-04-02T02:01:28.457Z,57.45
2019-04-02T02:03:55.035Z,57.02
2019-04-02T02:06:21.843Z,56.90
2019-04-02T02:08:48.410Z,57.78
2019-04-02T02:11:15.103Z,58.33
2019-04-02T02:13:41.721Z,58.48
2019-04-02T02:16:08.694Z,57.84
2019-04-02T02:18:35.456Z,57.82
2019-04-02T02:21:02.036Z,57.70
2019-04-02T02:23:28.702Z,58.50
2019-04-02T02:25:55.287Z,57.94
2019-04-02T02:28:21.863Z,57.37
2019-04-02T02:30:48.584Z,57.46
2019-04-02T02:33:15.383Z,57.62
2019-04-02T02:35:42.132Z,58.24
2019-04-02T02:38:10.824Z,58.50
2019-04-02T02:40:43.267Z,58.45
2019-04-02T02:43:09.917Z,58.03
2019-04-02T02:45:36.649Z,57.74
2019-04-02T02:48:03.527Z,58.36
2019-04-02T02:50:30.072Z,58.14
2019-04-02T02:52:56.771Z,57.25
2019-04-02T02:55:23.319Z,57.54
2019-04-02T02:57:49.964Z,57.81
2019-04-02T03:00:16.855Z,58.67
2019-04-02T03:02:46.529Z,58.14
2019-04-02T03:05:13.658Z,57.92
2019-04-02T03:07:40.564Z,57.70
2019-04-02T03:10:07.581Z,57.56
2019-04-02T03:12:36.238Z,57.00
2019-04-02T03:15:05.186Z,56.70
2019-04-02T03:17:32.599Z,57.61
2019-04-02T03:19:59.220Z,57.98
2019-04-02T03:22:25.860Z,58.14
2019-04-02T03:24:52.661Z,58.08
2019-04-02T03:27:20.762Z,57.78
2019-04-02T03:29:47.859Z,56.98
2019-04-02T03:32:14.543Z,57.17
2019-04-02T03:34:41.306Z,57.42
2019-04-02T03:37:27.958Z,57.43
2019-04-02T03:39:55.888Z,58.04
2019-04-02T03:42:22.693Z,57.73
2019-04-02T03:44:49.393Z,57.80
2019-04-02T03:47:15.975Z,57.63
2019-04-02T03:49:44.862Z,57.91
2019-04-02T03:52:11.162Z,57.20
2019-04-02T03:54:38.031Z,56.30
2019-04-02T03:57:04.678Z,56.51
2019-04-02T03:59:31.454Z,57.09
2019-04-02T04:02:01.119Z,56.23
2019-04-02T04:04:26.606Z,57.10
2019-04-02T04:06:53.313Z,57.21
2019-04-02T04:09:20.017Z,56.88
2019-04-02T04:11:48.628Z,57.17
2019-04-02T04:14:15.553Z,57.16
2019-04-02T04:16:42.131Z,57.61
2019-04-02T04:19:08.765Z,57.06
2019-04-02T04:21:35.383Z,55.62
2019-04-02T04:24:02.242Z,56.51
2019-04-02T04:26:28.834Z,56.25
2019-04-02T04:28:55.438Z,56.78
2019-04-02T04:31:23.369Z,57.06
2019-04-02T04:33:49.929Z,57.28
2019-04-02T04:36:16.617Z,57.76
2019-04-02T04:38:43.601Z,56.87
2019-04-02T04:41:10.304Z,57.01
2019-04-02T04:43:36.850Z,57.00
2019-04-02T04:46:03.421Z,57.60
2019-04-02T04:48:30.288Z,56.44
2019-04-02T04:50:57.931Z,55.73
2019-04-02T04:53:27.381Z,55.74
2019-04-02T04:55:53.983Z,54.66
2019-04-02T04:58:21.772Z,55.08
2019-04-02T05:00:49.680Z,56.22
2019-04-02T05:03:22.524Z,54.19
2019-04-02T05:05:49.148Z,54.42
2019-04-02T05:08:17.502Z,53.95
2019-04-02T05:10:44.263Z,52.12
2019-04-02T05:13:10.906Z,52.36
2019-04-02T05:15:37.570Z,53.78
2019-04-02T05:18:04.571Z,52.67
2019-04-02T05:20:31.195Z,53.14
2019-04-02T05:22:58.045Z,51.88
2019-04-02T05:25:24.612Z,51.86
2019-04-02T05:27:51.182Z,51.93
2019-04-02T05:30:18.041Z,51.01
2019-04-02T05:32:44.628Z,51.02
2019-04-02T05:35:12.443Z,49.61
2019-04-02T05:37:39.309Z,49.87
2019-04-02T05:40:06.803Z,50.29
2019-04-02T05:42:33.417Z,49.28
2019-04-02T05:45:00.163Z,48.00
2019-04-02T05:47:26.898Z,48.42
2019-04-02T05:49:53.597Z,48.05
2019-04-02T05:52:20.183Z,47.92
2019-04-02T05:54:46.750Z,49.73
2019-04-02T05:57:13.523Z,48.97
2019-04-02T05:59:40.289Z,46.61
2019-04-02T06:02:07.957Z,47.14
2019-04-02T06:04:34.623Z,45.50
2019-04-02T06:07:01.624Z,46.56
2019-04-02T06:09:28.364Z,45.22
2019-04-02T06:11:55.143Z,45.04
2019-04-02T06:14:21.707Z,44.66
2019-04-02T06:16:48.281Z,43.88
2019-04-02T06:19:15.007Z,43.13
2019-04-02T06:21:41.795Z,45.30
2019-04-02T06:24:08.353Z,44.30
2019-04-02T06:26:36.436Z,43.28
2019-04-02T06:29:03.320Z,42.42
2019-04-02T06:31:29.880Z,43.70
2019-04-02T06:33:56.497Z,41.77
2019-04-02T06:36:23.063Z,44.37
2019-04-02T06:38:49.741Z,40.75
2019-04-02T06:41:16.281Z,42.81
2019-04-02T06:43:42.894Z,41.60
2019-04-02T06:46:09.586Z,40.58
2019-04-02T06:48:38.272Z,38.90
2019-04-02T06:51:08.134Z,38.37
2019-04-02T06:53:36.519Z,38.76
2019-04-02T06:56:03.815Z,36.89
2019-04-02T06:58:30.378Z,37.14
2019-04-02T07:00:57.096Z,37.06
2019-04-02T07:03:23.749Z,37.80
2019-04-02T07:05:50.314Z,35.88
2019-04-02T07:08:16.913Z,35.44
2019-04-02T07:10:44.252Z,34.22
2019-04-02T07:13:12.072Z,34.42
2019-04-02T07:15:38.829Z,33.46
2019-04-02T07:18:05.430Z,33.12
2019-04-02T07:20:32.172Z,33.43
2019-04-02T07:22:58.902Z,33.09
2019-04-02T07:25:25.591Z,32.27
2019-04-02T07:27:52.414Z,32.63
2019-04-02T07:30:19.292Z,32.01
2019-04-02T07:32:45.984Z,32.61
2019-04-02T07:35:13.070Z,32.26
2019-04-02T07:37:40.104Z,31.50
2019-04-02T07:40:07.339Z,31.10
2019-04-02T07:42:34.127Z,30.91
2019-04-02T07:45:04.584Z,30.83
2019-04-02T07:47:31.151Z,30.24
2019-04-02T07:49:57.897Z,29.79
2019-04-02T07:52:25.113Z,30.51
2019-04-02T07:54:52.359Z,29.85
2019-04-02T07:57:21.078Z,29.23
2019-04-02T07:59:47.461Z,28.09
2019-04-02T08:02:14.159Z,28.75
2019-04-02T08:04:41.093Z,29.21
2019-04-02T08:07:07.819Z,28.79
2019-04-02T08:09:34.393Z,29.52
2019-04-02T08:12:01.080Z,28.53
2019-04-02T08:14:28.112Z,29.43
2019-04-02T08:16:54.860Z,28.66
2019-04-02T08:19:21.680Z,28.52
2019-04-02T08:21:48.345Z,28.69
2019-04-02T08:24:15.251Z,28.28
2019-04-02T08:26:41.905Z,28.10
2019-04-02T08:29:08.546Z,28.09
2019-04-02T08:31:35.701Z,28.95
2019-04-02T08:34:02.723Z,27.62
2019-04-02T08:36:29.717Z,27.39
2019-04-02T08:38:56.272Z,27.89
2019-04-02T08:41:22.948Z,27.49
2019-04-02T08:43:49.496Z,27.35
2019-04-02T08:46:16.319Z,26.07
2019-04-02T08:48:43.201Z,26.69
2019-04-02T08:51:10.035Z,26.74
2019-04-02T08:53:36.796Z,26.82
2019-04-02T08:56:03.646Z,27.38
2019-04-02T08:58:30.542Z,26.70
2019-04-02T09:01:00.193Z,25.65
2019-04-02T09:03:25.666Z,25.84
2019-04-02T09:05:52.439Z,25.50
2019-04-02T09:08:19.101Z,26.25
2019-04-02T09:10:45.745Z,25.19
2019-04-02T09:13:12.726Z,25.68
2019-04-02T09:15:39.890Z,25.50
2019-04-02T09:18:06.588Z,25.17
2019-04-02T09:20:33.915Z,25.49
2019-04-02T09:23:00.791Z,25.34
2019-04-02T09:25:27.418Z,26.09
2019-04-02T09:27:54.108Z,25.57
2019-04-02T09:30:21.175Z,25.73
2019-04-02T09:32:47.778Z,25.77
2019-04-02T09:35:14.531Z,25.85
2019-04-02T09:37:41.393Z,25.88
2019-04-02T09:40:09.414Z,25.62
2019-04-02T09:42:36.215Z,25.79
2019-04-02T09:45:06.548Z,25.22
2019-04-02T09:47:33.098Z,25.48
2019-04-02T09:49:59.709Z,25.23
2019-04-02T09:52:26.382Z,25.66
2019-04-02T09:54:53.027Z,24.36
2019-04-02T09:57:19.715Z,25.71
2019-04-02T09:59:47.821Z,25.09
2019-04-02T10:02:17.359Z,25.52
2019-04-02T10:04:44.753Z,24.91
2019-04-02T10:07:11.687Z,25.10
2019-04-02T10:09:38.583Z,24.62
2019-04-02T10:12:06.719Z,24.90
2019-04-02T10:14:33.928Z,24.80
2019-04-02T10:17:00.681Z,23.28
2019-04-02T10:19:27.317Z,23.39
2019-04-02T10:21:53.969Z,23.17
2019-04-02T10:24:20.547Z,23.79
2019-04-02T10:26:47.402Z,23.18
2019-04-02T10:29:14.426Z,23.20
2019-04-02T10:31:41.212Z,22.57
2019-04-02T10:34:08.033Z,23.09
2019-04-02T10:36:34.798Z,23.30
2019-04-02T10:39:01.512Z,22.88
2019-04-02T10:41:29.824Z,23.15
2019-04-02T10:43:56.555Z,22.78
2019-04-02T10:46:23.110Z,23.13
2019-04-02T10:48:49.750Z,22.07
2019-04-02T10:51:19.888Z,23.26
2019-04-02T10:53:46.523Z,22.83
2019-04-02T10:56:13.366Z,23.11
2019-04-02T10:58:41.882Z,23.26
2019-04-02T11:01:09.425Z,22.99
2019-04-02T11:03:36.175Z,23.48
2019-04-02T11:06:03.043Z,23.61
2019-04-02T11:08:29.809Z,24.32
2019-04-02T11:10:57.398Z,24.57
2019-04-02T11:13:24.272Z,23.71
2019-04-02T11:15:51.376Z,23.44
2019-04-02T11:18:18.159Z,23.98
2019-04-02T11:20:44.853Z,23.85
2019-04-02T11:23:11.904Z,22.74
2019-04-02T11:25:38.542Z,24.22
2019-04-02T11:28:05.262Z,23.31
2019-04-02T11:30:32.066Z,22.84
2019-04-02T11:32:59.832Z,21.96
2019-04-02T11:35:27.307Z,22.65
2019-04-02T11:37:55.814Z,21.78
2019-04-02T11:40:22.736Z,21.90
2019-04-02T11:42:49.344Z,21.55
2019-04-02T11:45:16.228Z,22.33
2019-04-02T11:47:43.065Z,22.82
2019-04-02T11:50:11.309Z,21.63
2019-04-02T11:52:39.559Z,23.04
2019-04-02T11:55:07.594Z,22.23
2019-04-02T11:57:34.668Z,22.22
2019-04-02T12:00:01.932Z,22.60
2019-04-02T12:02:29.916Z,22.11
2019-04-02T12:04:56.727Z,22.59
2019-04-02T12:07:23.405Z,22.11
2019-04-02T12:09:49.988Z,22.17
2019-04-02T12:12:16.701Z,22.32
2019-04-02T12:14:43.230Z,23.09
2019-04-02T12:17:09.895Z,21.22
2019-04-02T12:19:37.667Z,21.57
2019-04-02T12:22:04.503Z,22.57
2019-04-02T12:24:31.066Z,21.87
2019-04-02T12:26:58.136Z,21.93
2019-04-02T12:29:25.119Z,22.40
2019-04-02T12:31:52.076Z,22.05
2019-04-02T12:34:18.764Z,21.83
2019-04-02T12:36:45.451Z,21.89
2019-04-02T12:39:12.610Z,21.71
2019-04-02T12:41:42.042Z,21.38
2019-04-02T12:44:08.085Z,21.73
2019-04-02T12:46:34.734Z,22.22
2019-04-02T12:49:03.479Z,21.88
2019-04-02T12:51:30.042Z,22.02
2019-04-02T12:53:56.695Z,21.57
2019-04-02T12:56:23.298Z,21.65
2019-04-02T12:58:50.102Z,21.03
2019-04-02T13:01:16.691Z,21.39
2019-04-02T13:03:43.351Z,21.86
2019-04-02T13:06:09.940Z,22.26
2019-04-02T13:08:36.641Z,22.39
2019-04-02T13:11:03.728Z,22.63
2019-04-02T13:13:31.099Z,22.23
2019-04-02T13:15:57.817Z,22.54
2019-04-02T13:18:24.416Z,21.99
2019-04-02T13:20:51.175Z,22.81
2019-04-02T13:23:18.888Z,22.08
2019-04-02T13:25:45.450Z,22.07
2019-04-02T13:28:12.143Z,22.33
2019-04-02T13:30:39.259Z,22.47
2019-04-02T13:33:05.818Z,22.21
2019-04-02T13:35:32.502Z,22.94
2019-04-02T13:37:59.272Z,22.80
2019-04-02T13:40:25.880Z,22.77
2019-04-02T13:42:55.471Z,23.09
2019-04-02T13:45:22.470Z,23.20
2019-04-02T13:47:49.498Z,22.66
2019-04-02T13:50:19.089Z,23.15
2019-04-02T13:52:46.155Z,23.09
2019-04-02T13:55:13.108Z,22.98
2019-04-02T13:57:39.953Z,21.89
2019-04-02T14:00:12.490Z,22.46
2019-04-02T14:02:39.379Z,22.15
2019-04-02T14:05:07.062Z,22.23
2019-04-02T14:07:34.356Z,21.71
2019-04-02T14:10:03.003Z,22.19
2019-04-02T14:12:30.115Z,23.01
2019-04-02T14:14:57.442Z,22.26
2019-04-02T14:17:24.146Z,22.13
2019-04-02T14:19:50.713Z,22.58
2019-04-02T14:22:17.917Z,22.61
2019-04-02T14:24:44.878Z,22.00
2019-04-02T14:27:11.643Z,21.19
2019-04-02T14:29:38.423Z,22.25
2019-04-02T14:32:06.506Z,22.04
2019-04-02T14:34:33.042Z,21.75
2019-04-02T14:36:59.772Z,21.93
2019-04-02T14:39:26.449Z,22.68
2019-04-02T14:41:52.987Z,22.50
2019-04-02T14:44:19.695Z,22.24
2019-04-02T14:46:46.393Z,22.00
2019-04-02T14:49:15.465Z,22.42
2019-04-02T14:51:42.170Z,21.69
2019-04-02T14:54:08.981Z,21.73
2019-04-02T14:56:35.784Z,21.95
2019-04-02T14:59:02.565Z,21.81
2019-04-02T15:01:29.190Z,21.99
2019-04-02T15:03:55.918Z,21.90
2019-04-02T15:06:25.250Z,21.62
2019-04-02T15:08:51.827Z,21.80
2019-04-02T15:11:18.549Z,22.11
2019-04-02T15:13:46.630Z,21.85
2019-04-02T15:16:13.831Z,21.86
2019-04-02T15:18:40.669Z,21.90
2019-04-02T15:21:07.508Z,22.11
2019-04-02T15:23:34.184Z,22.19
2019-04-02T15:26:00.850Z,22.18
2019-04-02T15:28:27.729Z,22.18
2019-04-02T15:30:55.518Z,22.21
2019-04-02T15:33:22.536Z,22.54
2019-04-02T15:35:49.696Z,22.37
2019-04-02T15:38:17.667Z,22.89
2019-04-02T15:40:44.300Z,22.79
2019-04-02T15:43:11.041Z,22.86
2019-04-02T15:45:37.714Z,22.96
2019-04-02T15:48:04.272Z,23.29
2019-04-02T15:50:30.988Z,23.44
2019-04-02T15:52:58.102Z,23.54
2019-04-02T15:55:25.599Z,23.58
2019-04-02T15:57:54.818Z,23.40
2019-04-02T16:00:26.702Z,23.47
2019-04-02T16:02:51.838Z,23.41
2019-04-02T16:05:18.682Z,24.10
2019-04-02T16:07:46.502Z,23.46
2019-04-02T16:10:14.512Z,23.76
2019-04-02T16:12:43.030Z,23.81
2019-04-02T16:15:11.474Z,24.18
2019-04-02T16:17:39.645Z,23.78
2019-04-02T16:20:08.764Z,24.51
2019-04-02T16:22:35.838Z,24.39
2019-04-02T16:25:04.797Z,23.92
2019-04-02T16:27:31.376Z,24.54
2019-04-02T16:29:58.044Z,23.90
2019-04-02T16:32:24.642Z,23.96
2019-04-02T16:34:51.194Z,24.59
2019-04-02T16:37:18.065Z,24.23
2019-04-02T16:39:44.668Z,25.50
2019-04-02T16:42:11.347Z,24.70
2019-04-02T16:44:37.929Z,24.71
2019-04-02T16:47:04.737Z,25.19
2019-04-02T16:49:31.324Z,25.80
2019-04-02T16:51:59.009Z,25.46
2019-04-02T16:54:25.596Z,25.37
2019-04-02T16:56:52.325Z,25.55
2019-04-02T16:59:20.009Z,25.45
2019-04-02T17:01:46.632Z,26.26
2019-04-02T17:04:13.340Z,26.21
2019-04-02T17:06:41.580Z,26.81
2019-04-02T17:09:08.171Z,26.51
2019-04-02T17:11:35.126Z,25.64
2019-04-02T17:14:04.315Z,25.77
2019-04-02T17:16:30.616Z,25.55
2019-04-02T17:18:57.254Z,26.29
2019-04-02T17:21:23.877Z,26.68
2019-04-02T17:23:50.654Z,26.72
2019-04-02T17:26:17.401Z,26.45
2019-04-02T17:28:43.959Z,25.96
2019-04-02T17:31:10.559Z,27.36
2019-04-02T17:33:37.789Z,26.88
2019-04-02T17:36:05.147Z,27.56
2019-04-02T17:38:31.962Z,28.07
2019-04-02T17:40:58.524Z,26.99
2019-04-02T17:43:25.214Z,27.90
2019-04-02T17:45:51.803Z,26.43
2019-04-02T17:48:19.691Z,27.14
2019-04-02T17:50:46.523Z,28.25
2019-04-02T17:53:13.188Z,27.76
2019-04-02T17:55:40.555Z,27.63
2019-04-02T17:58:08.078Z,27.38
2019-04-02T18:00:35.813Z,28.31
2019-04-02T18:03:04.418Z,28.69
2019-04-02T18:05:31.112Z,28.66
2019-04-02T18:07:57.947Z,29.38
2019-04-02T18:10:26.100Z,30.22
2019-04-02T18:12:54.999Z,29.41
2019-04-02T18:15:21.862Z,29.59
2019-04-02T18:17:48.613Z,30.57
2019-04-02T18:20:15.473Z,29.18
2019-04-02T18:22:43.356Z,29.34
2019-04-02T18:25:13.267Z,30.61
2019-04-02T18:27:39.190Z,29.23
2019-04-02T18:30:07.248Z,29.81
2019-04-02T18:32:33.963Z,30.47
2019-04-02T18:35:00.739Z,29.46
2019-04-02T18:37:29.146Z,29.65
2019-04-02T18:39:56.122Z,31.22
2019-04-02T18:42:22.956Z,30.25
2019-04-02T18:44:49.737Z,30.87
2019-04-02T18:47:16.784Z,30.93
2019-04-02T18:49:43.594Z,31.23
2019-04-02T18:52:10.480Z,32.03
2019-04-02T18:54:37.211Z,30.22
2019-04-02T18:57:03.877Z,29.19
2019-04-02T18:59:30.619Z,29.36
2019-04-02T19:01:58.588Z,30.20
2019-04-02T19:04:25.819Z,28.69
2019-04-02T19:06:54.791Z,28.76
2019-04-02T19:09:21.712Z,29.71
2019-04-02T19:11:48.332Z,29.97
2019-04-02T19:14:14.956Z,29.27
2019-04-02T19:16:42.959Z,29.68
2019-04-02T19:19:09.898Z,29.64
2019-04-02T19:21:41.405Z,29.86
2019-04-02T19:24:08.299Z,30.40
2019-04-02T19:26:34.984Z,29.10
2019-04-02T19:29:02.855Z,28.55
2019-04-02T19:31:29.771Z,29.00
2019-04-02T19:33:56.810Z,29.38
2019-04-02T19:36:24.862Z,29.49
2019-04-02T19:38:53.795Z,29.66
2019-04-02T19:41:21.669Z,29.17
2019-04-02T19:43:50.504Z,29.49
2019-04-02T19:46:17.703Z,29.27
2019-04-02T19:48:44.387Z,29.67
2019-04-02T19:51:17.606Z,29.92
2019-04-02T19:53:41.251Z,29.66
2019-04-02T19:56:08.666Z,30.51
2019-04-02T19:58:35.529Z,29.40
2019-04-02T20:01:11.954Z,29.14
2019-04-02T20:03:31.508Z,29.87
2019-04-02T20:05:58.480Z,31.25
2019-04-02T20:08:25.746Z,30.67
2019-04-02T20:10:52.640Z,30.05
2019-04-02T20:13:19.602Z,30.82
2019-04-02T20:15:46.717Z,31.06
2019-04-02T20:18:13.770Z,31.30
2019-04-02T20:20:40.919Z,31.36
2019-04-02T20:23:07.540Z,30.96
2019-04-02T20:25:34.182Z,31.56
2019-04-02T20:28:01.938Z,31.64
2019-04-02T20:30:28.814Z,31.47
2019-04-02T20:32:55.425Z,30.97
2019-04-02T20:35:24.077Z,31.04
2019-04-02T20:37:51.310Z,31.73
2019-04-02T20:40:17.997Z,31.42
2019-04-02T20:42:44.872Z,31.42
2019-04-02T20:45:11.743Z,31.63
2019-04-02T20:47:38.597Z,31.59
2019-04-02T20:50:08.406Z,31.37
2019-04-02T20:52:36.210Z,31.33
2019-04-02T20:55:04.203Z,31.20
2019-04-02T20:57:31.053Z,32.20
2019-04-02T20:59:57.840Z,31.99
2019-04-02T21:02:27.272Z,31.99
2019-04-02T21:04:57.734Z,31.83
2019-04-02T21:07:24.988Z,31.13
2019-04-02T21:09:51.936Z,31.03
2019-04-02T21:12:21.437Z,31.39
2019-04-02T21:14:48.456Z,31.63
2019-04-02T21:17:15.342Z,32.07
2019-04-02T21:19:42.232Z,31.68
2019-04-02T21:22:09.423Z,31.76
2019-04-02T21:24:36.413Z,31.24
2019-04-02T21:27:03.527Z,31.68
2019-04-02T21:29:30.454Z,31.51
2019-04-02T21:31:58.255Z,31.20
2019-04-02T21:34:37.946Z,30.61
2019-04-02T21:36:55.133Z,31.38
2019-04-02T21:39:22.154Z,31.50
2019-04-02T21:41:48.809Z,30.99
2019-04-02T21:44:15.510Z,31.18
2019-04-02T21:46:42.140Z,31.49
2019-04-02T21:49:08.721Z,31.55
2019-04-02T21:51:36.916Z,31.55
2019-04-02T21:54:04.312Z,30.64
2019-04-02T21:56:30.917Z,30.61
2019-04-02T21:58:57.495Z,31.38
2019-04-02T22:01:24.223Z,30.39
2019-04-02T22:03:50.951Z,30.26
2019-04-02T22:06:17.827Z,31.65
2019-04-02T22:08:44.372Z,30.66
2019-04-02T22:11:12.559Z,31.36
2019-04-02T22:13:40.519Z,30.88
2019-04-02T22:16:08.237Z,30.51
2019-04-02T22:18:34.889Z,31.64
2019-04-02T22:21:01.472Z,31.57
2019-04-02T22:23:28.008Z,30.49
2019-04-02T22:25:54.713Z,30.51
2019-04-02T22:28:21.258Z,30.53
2019-04-02T22:30:48.107Z,30.68
2019-04-02T22:33:18.072Z,30.69
2019-04-02T22:35:44.555Z,30.64
2019-04-02T22:38:11.242Z,30.83
2019-04-02T22:40:37.772Z,30.66
2019-04-02T22:43:04.515Z,30.51
2019-04-02T22:45:31.208Z,31.09
2019-04-02T22:47:57.843Z,31.12
2019-04-02T22:50:25.309Z,30.46
2019-04-02T22:52:52.634Z,30.38
2019-04-02T22:55:19.203Z,30.56
2019-04-02T22:57:45.934Z,30.29
2019-04-02T23:00:15.204Z,30.78
2019-04-02T23:02:42.054Z,30.59
2019-04-02T23:05:08.963Z,30.55
2019-04-02T23:07:35.507Z,30.63
2019-04-02T23:10:05.199Z,30.21
2019-04-02T23:12:33.426Z,30.53
2019-04-02T23:15:00.488Z,30.51
2019-04-02T23:17:30.765Z,31.25
2019-04-02T23:19:55.690Z,30.40
2019-04-02T23:22:22.342Z,30.13
2019-04-02T23:24:49.113Z,30.42
2019-04-02T23:27:16.924Z,30.06
2019-04-02T23:29:44.339Z,30.80
2019-04-02T23:32:10.992Z,30.62
2019-04-02T23:34:37.865Z,30.18
2019-04-02T23:37:04.581Z,30.47
2019-04-02T23:39:32.608Z,30.58
2019-04-02T23:41:59.656Z,30.49
2019-04-02T23:44:26.339Z,30.06
2019-04-02T23:46:52.922Z,30.43
2019-04-02T23:49:19.653Z,31.56
2019-04-02T23:51:46.385Z,30.86
2019-04-02T23:54:13.064Z,30.82
2019-04-02T23:56:39.960Z,30.78
2019-04-02T23:59:06.688Z,30.94
